Time;durP1;ratioP1;P1;durP2;ratioP2;P2;SDS_P1;SDS_P2;PMS_P1;PMS_P2;Temp;Humidity;BMP_temperature;BMP_pressure;BME280_temperature;BME280_humidity;BME280_pressure;Samples;Min_cycle;Max_cycle;Signal;HPM_P1;HPM_P2
2021/08/01 00:00:25;;;;;;;3.75;2.70;;;20.80;99.90;;;;;;4966961;28;20217;-74
2021/08/01 00:02:52;;;;;;;4.30;3.95;;;20.70;99.90;;;;;;4966611;28;20222;-76
2021/08/01 00:05:19;;;;;;;4.18;3.78;;;20.30;99.90;;;;;;4966099;28;20280;-76
2021/08/01 00:07:48;;;;;;;5.22;4.10;;;19.90;99.90;;;;;;4962078;28;20225;-75
2021/08/01 00:10:15;;;;;;;4.00;3.60;;;19.90;99.90;;;;;;4968979;28;20246;-77
2021/08/01 00:12:43;;;;;;;4.45;3.58;;;20.10;99.90;;;;;;4971025;28;20228;-77
2021/08/01 00:15:12;;;;;;;5.22;3.75;;;20.10;99.90;;;;;;4967498;28;20300;-77
2021/08/01 00:17:39;;;;;;;4.45;4.05;;;20.20;99.90;;;;;;4978861;28;20220;-77
2021/08/01 00:20:08;;;;;;;4.03;3.72;;;20.40;99.90;;;;;;4969442;28;20288;-76
2021/08/01 00:22:35;;;;;;;3.75;3.45;;;20.50;99.90;;;;;;4964419;28;20221;-75
2021/08/01 00:25:04;;;;;;;3.88;3.50;;;20.60;99.90;;;;;;4974762;28;20291;-76
2021/08/01 00:27:35;;;;;;;3.58;3.35;;;20.70;99.90;;;;;;4972598;28;20651;-76
2021/08/01 00:30:02;;;;;;;4.20;3.80;;;20.90;99.90;;;;;;4967717;28;20232;-76
2021/08/01 00:32:29;;;;;;;3.80;3.50;;;20.90;99.90;;;;;;4968466;28;20296;-75
2021/08/01 00:34:56;;;;;;;3.45;3.10;;;20.80;99.90;;;;;;4974694;28;20225;-76
2021/08/01 00:37:23;;;;;;;3.72;3.42;;;20.80;99.90;;;;;;4967142;28;20288;-76
2021/08/01 00:39:51;;;;;;;3.30;3.00;;;20.80;99.90;;;;;;4978013;28;20225;-76
2021/08/01 00:42:19;;;;;;;3.50;3.00;;;20.80;99.90;;;;;;4967439;28;20236;-77
2021/08/01 00:44:46;;;;;;;3.42;3.13;;;20.90;99.90;;;;;;4970911;28;20225;-77
2021/08/01 00:47:14;;;;;;;2.88;2.67;;;20.90;99.90;;;;;;4969183;28;20237;-76
2021/08/01 00:49:41;;;;;;;3.08;2.83;;;21.00;99.90;;;;;;4967430;28;20858;-76
2021/08/01 00:52:09;;;;;;;2.55;2.35;;;21.00;99.90;;;;;;4969647;28;20639;-75
2021/08/01 00:54:36;;;;;;;2.78;2.58;;;20.90;99.90;;;;;;4966729;28;20308;-76
2021/08/01 00:57:04;;;;;;;2.65;2.45;;;21.00;99.90;;;;;;4972725;28;20743;-77
2021/08/01 00:59:34;;;;;;;3.22;2.90;;;21.00;99.90;;;;;;4970423;28;20229;-77
2021/08/01 01:02:06;;;;;;;2.25;2.03;;;20.90;99.90;;;;;;4978126;28;20233;-79
2021/08/01 01:04:44;;;;;;;3.72;3.20;;;20.90;99.90;;;;;;4972906;28;20290;-78
2021/08/01 01:07:17;;;;;;;3.35;3.08;;;20.70;99.90;;;;;;4971526;28;20233;-79
2021/08/01 01:09:50;;;;;;;2.95;2.75;;;20.40;99.90;;;;;;4993635;28;20264;-78
2021/08/01 01:12:23;;;;;;;2.85;2.65;;;20.20;99.90;;;;;;4973313;28;20754;-79
2021/08/01 01:14:56;;;;;;;2.60;2.40;;;20.10;99.90;;;;;;4974452;28;20287;-78
2021/08/01 01:17:25;;;;;;;3.30;3.00;;;20.10;99.90;;;;;;4977000;28;20582;-79
2021/08/01 01:20:31;;;;;;;2.90;2.65;;;20.20;99.90;;;;;;4970940;28;20279;-77
2021/08/01 01:23:13;;;;;;;2.50;2.30;;;20.20;99.90;;;;;;4949165;28;20276;-78
2021/08/01 01:25:45;;;;;;;2.80;2.60;;;20.20;99.90;;;;;;4985800;28;20761;-78
2021/08/01 01:28:19;;;;;;;2.83;2.63;;;20.00;99.90;;;;;;4989120;28;20283;-78
2021/08/01 01:30:53;;;;;;;3.13;2.90;;;19.70;99.90;;;;;;4982721;28;20213;-78
2021/08/01 01:33:24;;;;;;;3.00;2.80;;;19.40;99.90;;;;;;4974782;28;20247;-78
2021/08/01 01:35:55;;;;;;;3.58;3.20;;;19.30;99.90;;;;;;4972601;28;20277;-78
2021/08/01 01:38:26;;;;;;;2.90;2.70;;;19.40;99.90;;;;;;4972256;28;20704;-78
2021/08/01 01:40:56;;;;;;;2.53;2.33;;;19.60;99.90;;;;;;4979479;28;20217;-79
2021/08/01 01:43:25;;;;;;;3.38;3.08;;;19.70;99.90;;;;;;4973853;28;20230;-78
2021/08/01 01:45:54;;;;;;;3.38;3.08;;;19.70;99.90;;;;;;4978948;28;20221;-79
2021/08/01 01:48:21;;;;;;;4.82;4.43;;;19.50;99.90;;;;;;4976011;28;20280;-78
2021/08/01 01:50:49;;;;;;;5.57;4.68;;;19.50;99.90;;;;;;4980028;28;20217;-78
2021/08/01 01:53:16;;;;;;;4.35;3.97;;;19.30;99.90;;;;;;4979321;28;20229;-78
2021/08/01 01:55:46;;;;;;;4.15;3.75;;;19.10;99.90;;;;;;4976320;28;20252;-78
2021/08/01 01:58:14;;;;;;;4.20;3.88;;;19.10;99.90;;;;;;4973243;28;20260;-78
2021/08/01 02:00:41;;;;;;;3.53;3.22;;;19.20;99.90;;;;;;4995376;28;20252;-78
2021/08/01 02:03:08;;;;;;;3.67;3.38;;;19.30;99.90;;;;;;4973676;28;20374;-78
2021/08/01 02:05:35;;;;;;;3.92;3.10;;;19.50;99.90;;;;;;4978330;28;20221;-78
2021/08/01 02:08:03;;;;;;;4.10;3.70;;;19.50;99.90;;;;;;4975112;28;20651;-79
2021/08/01 02:10:36;;;;;;;26.08;6.35;;;19.60;99.90;;;;;;4983199;28;20236;-78
2021/08/01 02:13:08;;;;;;;18.90;7.20;;;19.30;99.90;;;;;;4979875;28;20231;-78
2021/08/01 02:15:44;;;;;;;5.45;4.72;;;18.90;99.90;;;;;;4979438;28;20225;-78
2021/08/01 02:18:17;;;;;;;4.28;3.88;;;18.60;99.90;;;;;;4972133;28;20605;-78
2021/08/01 02:20:46;;;;;;;5.00;4.60;;;18.70;99.90;;;;;;4973432;28;20709;-78
2021/08/01 02:23:17;;;;;;;5.75;5.32;;;18.60;99.90;;;;;;4973378;28;20233;-78
2021/08/01 02:25:46;;;;;;;5.05;4.65;;;18.40;99.90;;;;;;4974818;28;20220;-79
2021/08/01 02:28:15;;;;;;;5.03;4.63;;;18.30;99.90;;;;;;4988450;28;20247;-78
2021/08/01 02:30:44;;;;;;;4.50;4.10;;;18.50;99.90;;;;;;4975180;28;20217;-78
2021/08/01 02:33:12;;;;;;;4.00;3.70;;;18.80;99.90;;;;;;4974990;28;20288;-78
2021/08/01 02:35:40;;;;;;;4.35;3.95;;;19.20;99.90;;;;;;4977523;28;20229;-79
2021/08/01 02:38:08;;;;;;;3.95;3.65;;;19.40;99.90;;;;;;4982288;28;20579;-78
2021/08/01 02:40:37;;;;;;;3.33;3.03;;;19.60;99.90;;;;;;4980404;28;20589;-79
2021/08/01 02:43:09;;;;;;;3.70;3.40;;;19.80;99.90;;;;;;4983057;28;20225;-79
2021/08/01 02:45:41;;;;;;;3.60;3.30;;;19.90;99.90;;;;;;4977424;28;20221;-79
2021/08/01 02:48:11;;;;;;;3.60;3.33;;;19.90;99.90;;;;;;4976358;28;20225;-78
2021/08/01 02:53:18;;;;;;;2.88;2.67;;;19.70;99.90;;;;;;5621500;23;20215;-79
2021/08/01 02:55:48;;;;;;;4.40;3.45;;;19.70;99.90;;;;;;5006542;28;20224;-78
2021/08/01 02:58:18;;;;;;;3.42;3.13;;;19.60;99.90;;;;;;5012629;28;20227;-80
2021/08/01 03:00:47;;;;;;;4.43;2.70;;;19.60;99.90;;;;;;4993210;28;20216;-79
2021/08/01 03:03:16;;;;;;;3.58;3.25;;;19.50;99.90;;;;;;5002584;28;20235;-79
2021/08/01 03:05:45;;;;;;;3.20;3.00;;;19.60;99.90;;;;;;5012152;28;20265;-80
2021/08/01 03:08:13;;;;;;;3.45;3.25;;;19.50;99.90;;;;;;5011417;28;20250;-81
2021/08/01 03:10:44;;;;;;;4.18;3.67;;;19.40;99.90;;;;;;5007046;28;20252;-79
2021/08/01 03:13:11;;;;;;;2.92;2.72;;;19.30;99.90;;;;;;5001646;28;20225;-79
2021/08/01 03:15:38;;;;;;;3.83;3.45;;;19.20;99.90;;;;;;5003170;28;20231;-80
2021/08/01 03:18:06;;;;;;;3.42;3.13;;;19.30;99.90;;;;;;5007248;28;20247;-80
2021/08/01 03:20:33;;;;;;;3.65;3.35;;;19.30;99.90;;;;;;5022482;28;20227;-80
2021/08/01 03:23:01;;;;;;;3.47;3.20;;;19.40;99.90;;;;;;5024745;28;20223;-79
2021/08/01 03:25:28;;;;;;;3.25;3.03;;;19.60;99.90;;;;;;5019350;28;20228;-80
2021/08/01 03:27:55;;;;;;;3.10;2.90;;;19.70;99.90;;;;;;5002917;28;20225;-80
2021/08/01 03:30:22;;;;;;;3.20;2.90;;;19.70;99.90;;;;;;4993893;28;20217;-79
2021/08/01 03:32:49;;;;;;;2.78;2.58;;;19.70;99.90;;;;;;5008383;28;20228;-80
2021/08/01 03:35:26;;;;;;;3.20;3.00;;;19.70;99.90;;;;;;4994762;28;20235;-81
2021/08/01 03:37:53;;;;;;;3.10;2.80;;;19.60;99.90;;;;;;4980376;28;20251;-81
2021/08/01 03:40:23;;;;;;;3.10;2.90;;;19.60;99.90;;;;;;5003923;28;20201;-79
2021/08/01 03:43:07;;;;;;;3.35;3.10;;;19.60;99.90;;;;;;4986688;28;20762;-80
2021/08/01 03:51:27;;;;;;;3.67;3.38;;;19.20;99.90;;;;;;5022288;28;20226;-79
2021/08/01 03:53:54;;;;;;;3.28;3.08;;;19.20;99.90;;;;;;5005610;28;20221;-80
2021/08/01 03:56:21;;;;;;;3.80;3.50;;;19.30;99.90;;;;;;5012632;28;20219;-78
2021/08/01 03:58:48;;;;;;;3.72;3.42;;;19.20;99.90;;;;;;5003890;28;20226;-80
2021/08/01 04:01:16;;;;;;;3.70;3.40;;;19.10;99.90;;;;;;5002506;28;20646;-80
2021/08/01 04:03:44;;;;;;;4.43;4.03;;;19.10;99.90;;;;;;5005784;28;20250;-80
2021/08/01 04:06:11;;;;;;;3.75;3.45;;;18.90;99.90;;;;;;4995731;28;20212;-78
2021/08/01 04:08:39;;;;;;;3.20;2.85;;;18.90;99.90;;;;;;5012205;28;20228;-80
2021/08/01 04:11:07;;;;;;;3.22;2.90;;;19.00;99.90;;;;;;5002274;28;20227;-79
2021/08/01 04:13:35;;;;;;;3.55;3.25;;;19.20;99.90;;;;;;5015817;28;20236;-79
2021/08/01 04:16:02;;;;;;;3.67;3.38;;;19.20;99.90;;;;;;4998278;28;20232;-80
2021/08/01 04:18:30;;;;;;;3.30;3.10;;;19.20;99.90;;;;;;5017693;28;20235;-80
2021/08/01 04:20:57;;;;;;;4.35;3.10;;;19.30;99.90;;;;;;5010029;28;20226;-79
2021/08/01 04:23:24;;;;;;;3.15;2.95;;;19.40;99.90;;;;;;5010303;28;20229;-79
2021/08/01 04:25:53;;;;;;;3.10;2.90;;;19.40;99.90;;;;;;5007702;28;20222;-79
2021/08/01 04:28:20;;;;;;;3.05;2.85;;;19.50;99.90;;;;;;5000374;28;20303;-79
2021/08/01 04:30:47;;;;;;;3.30;3.00;;;19.60;99.90;;;;;;5004145;28;20231;-78
2021/08/01 04:33:14;;;;;;;2.80;2.60;;;19.70;99.90;;;;;;5019609;28;20282;-79
2021/08/01 04:35:41;;;;;;;3.00;2.70;;;19.80;99.90;;;;;;5011724;28;20235;-80
2021/08/01 04:38:08;;;;;;;2.85;2.65;;;19.90;99.90;;;;;;5010989;28;20220;-80
2021/08/01 04:40:35;;;;;;;3.22;2.92;;;19.90;99.90;;;;;;5014864;28;20298;-80
2021/08/01 04:43:04;;;;;;;2.70;2.50;;;20.00;99.90;;;;;;4998599;28;20227;-79
2021/08/01 04:45:31;;;;;;;3.03;2.72;;;20.10;99.90;;;;;;4998175;28;20776;-80
2021/08/01 04:47:58;;;;;;;2.75;2.55;;;20.20;99.90;;;;;;5005752;28;20701;-80
2021/08/01 04:50:25;;;;;;;3.22;2.92;;;20.20;99.90;;;;;;4999257;28;20275;-79
2021/08/01 04:52:53;;;;;;;2.63;2.42;;;20.20;99.90;;;;;;5000101;28;20223;-78
2021/08/01 04:55:21;;;;;;;3.00;2.80;;;20.20;99.90;;;;;;5009103;28;20220;-79
2021/08/01 04:57:48;;;;;;;2.72;2.53;;;20.10;99.90;;;;;;5004230;28;20223;-80
2021/08/01 05:00:17;;;;;;;3.08;2.88;;;20.10;99.90;;;;;;5006255;28;20226;-80
2021/08/01 05:02:44;;;;;;;3.13;2.83;;;20.10;99.90;;;;;;5001890;28;20229;-80
2021/08/01 05:05:12;;;;;;;3.25;3.03;;;20.10;99.90;;;;;;5005025;28;20291;-80
2021/08/01 05:07:39;;;;;;;9.30;3.92;;;20.10;99.90;;;;;;4994019;28;20233;-78
2021/08/01 05:10:08;;;;;;;4.28;3.80;;;20.20;99.90;;;;;;5000507;28;20782;-80
2021/08/01 05:12:35;;;;;;;4.93;4.53;;;20.00;99.90;;;;;;4998916;28;20679;-79
2021/08/01 05:15:04;;;;;;;4.10;3.80;;;19.60;99.90;;;;;;4999485;28;20656;-80
2021/08/01 05:17:33;;;;;;;4.05;3.75;;;19.40;99.90;;;;;;5007462;28;20279;-80
2021/08/01 05:20:00;;;;;;;4.30;3.97;;;19.50;99.90;;;;;;4998013;28;20219;-78
2021/08/01 05:22:27;;;;;;;15.25;5.05;;;19.50;99.90;;;;;;5014468;28;20200;-79
2021/08/01 05:24:54;;;;;;;45.20;7.38;;;19.30;99.90;;;;;;5021466;28;20227;-78
2021/08/01 05:27:21;;;;;;;77.35;8.77;;;19.10;99.90;;;;;;5010233;28;20216;-78
2021/08/01 05:29:48;;;;;;;8.40;5.78;;;19.00;99.90;;;;;;5000038;28;20242;-79
2021/08/01 05:32:15;;;;;;;13.57;6.00;;;18.90;99.90;;;;;;5002259;28;20626;-78
2021/08/01 05:34:44;;;;;;;5.95;5.35;;;18.80;99.90;;;;;;5011351;28;20227;-76
2021/08/01 05:37:11;;;;;;;5.68;5.15;;;18.70;99.90;;;;;;5008052;28;20228;-77
2021/08/01 05:39:38;;;;;;;5.22;4.72;;;18.70;99.90;;;;;;5007426;28;20236;-78
2021/08/01 05:42:05;;;;;;;5.40;4.90;;;18.70;99.90;;;;;;4984967;28;20215;-78
2021/08/01 05:44:33;;;;;;;4.78;4.38;;;18.70;99.90;;;;;;5009621;28;20228;-78
2021/08/01 05:47:00;;;;;;;5.03;4.63;;;18.80;99.90;;;;;;5003243;28;20717;-78
2021/08/01 05:49:27;;;;;;;4.07;3.67;;;18.90;99.90;;;;;;5004198;28;20220;-78
2021/08/01 05:51:56;;;;;;;4.00;3.70;;;19.00;99.90;;;;;;5006568;28;20219;-79
2021/08/01 05:54:23;;;;;;;4.05;3.65;;;19.20;99.90;;;;;;4997776;28;20231;-79
2021/08/01 05:56:50;;;;;;;3.80;3.50;;;19.40;99.90;;;;;;5004665;28;20227;-78
2021/08/01 05:59:17;;;;;;;3.70;3.40;;;19.40;99.90;;;;;;5004293;28;20661;-79
2021/08/01 06:01:44;;;;;;;3.67;3.38;;;19.40;99.90;;;;;;4997578;28;20219;-79
2021/08/01 06:04:11;;;;;;;3.83;3.53;;;19.60;99.90;;;;;;4994398;28;20228;-78
2021/08/01 06:06:38;;;;;;;3.63;3.33;;;19.80;99.90;;;;;;4999515;28;20224;-79
2021/08/01 06:09:07;;;;;;;3.45;3.25;;;19.90;99.90;;;;;;5002791;28;20233;-79
2021/08/01 06:11:34;;;;;;;3.58;3.28;;;19.90;99.90;;;;;;5000979;28;20249;-79
2021/08/01 06:14:03;;;;;;;3.47;3.17;;;19.90;99.90;;;;;;5010337;28;20265;-79
2021/08/01 06:16:30;;;;;;;3.28;3.08;;;19.80;99.90;;;;;;5008020;28;20233;-79
2021/08/01 06:18:57;;;;;;;3.10;2.88;;;19.90;99.90;;;;;;4997410;28;20646;-79
2021/08/01 06:21:25;;;;;;;3.85;3.55;;;20.00;99.90;;;;;;5005093;28;20220;-79
2021/08/01 06:23:54;;;;;;;3.83;3.42;;;20.10;99.90;;;;;;4999211;28;20369;-78
2021/08/01 06:26:24;;;;;;;3.35;3.15;;;20.00;99.90;;;;;;4995748;28;20707;-77
2021/08/01 06:28:51;;;;;;;3.47;3.17;;;20.00;99.90;;;;;;4997670;28;20308;-78
2021/08/01 06:31:18;;;;;;;3.33;2.90;;;20.00;99.90;;;;;;5008652;28;20220;-78
2021/08/01 06:33:45;;;;;;;4.43;3.40;;;20.00;99.90;;;;;;5002674;28;20220;-79
2021/08/01 06:36:14;;;;;;;3.40;2.90;;;20.10;99.90;;;;;;4995976;28;20252;-78
2021/08/01 06:38:43;;;;;;;5.63;4.18;;;20.10;99.90;;;;;;4997892;28;20224;-77
2021/08/01 06:41:10;;;;;;;3.90;3.60;;;20.10;99.90;;;;;;5002181;28;20228;-77
2021/08/01 06:43:39;;;;;;;3.80;3.50;;;19.90;99.90;;;;;;5004887;28;20236;-79
2021/08/01 06:46:06;;;;;;;3.88;3.58;;;19.80;99.90;;;;;;4992315;28;20228;-78
2021/08/01 06:48:33;;;;;;;4.32;3.45;;;19.80;99.90;;;;;;5000879;28;20231;-79
2021/08/01 06:51:01;;;;;;;3.78;3.47;;;19.90;99.90;;;;;;4996415;28;20220;-79
2021/08/01 06:53:29;;;;;;;3.60;3.20;;;19.90;99.90;;;;;;4998976;28;20232;-79
2021/08/01 06:55:56;;;;;;;3.30;3.00;;;20.10;99.90;;;;;;5004664;28;20220;-79
2021/08/01 06:58:23;;;;;;;3.55;3.25;;;20.30;99.90;;;;;;5005146;28;20239;-78
2021/08/01 07:00:53;;;;;;;3.83;3.35;;;20.20;99.90;;;;;;5009479;28;20591;-78
2021/08/01 07:03:21;;;;;;;3.92;3.63;;;20.10;99.90;;;;;;5000802;28;20224;-78
2021/08/01 07:05:48;;;;;;;3.42;3.22;;;19.90;99.90;;;;;;5008208;28;20219;-78
2021/08/01 07:08:15;;;;;;;3.15;2.95;;;20.00;99.90;;;;;;4997420;28;20228;-79
2021/08/01 07:10:42;;;;;;;3.53;3.22;;;20.00;99.90;;;;;;5007289;28;20216;-77
2021/08/01 07:13:10;;;;;;;3.20;3.00;;;20.10;99.90;;;;;;5013425;28;20223;-79
2021/08/01 07:15:38;;;;;;;3.30;3.10;;;20.20;99.90;;;;;;5003750;28;20583;-79
2021/08/01 07:18:08;;;;;;;3.55;3.25;;;20.30;99.90;;;;;;4989505;28;20310;-78
2021/08/01 07:20:35;;;;;;;4.25;3.25;;;20.10;99.90;;;;;;4991815;28;20315;-77
2021/08/01 07:23:05;;;;;;;3.08;2.88;;;20.00;99.90;;;;;;4991105;28;20782;-78
2021/08/01 07:25:32;;;;;;;4.45;4.05;;;19.90;99.90;;;;;;4990399;28;20223;-78
2021/08/01 07:27:59;;;;;;;3.38;3.17;;;19.60;99.90;;;;;;4999805;28;20254;-77
2021/08/01 07:30:29;;;;;;;3.97;3.13;;;19.60;99.90;;;;;;4991365;28;20235;-77
2021/08/01 07:32:56;;;;;;;3.90;3.50;;;19.80;99.90;;;;;;4988232;28;20229;-78
2021/08/01 07:35:25;;;;;;;4.15;3.78;;;20.10;99.90;;;;;;4993338;28;20224;-78
2021/08/01 07:37:52;;;;;;;4.30;3.95;;;20.30;99.90;;;;;;4994858;28;20224;-78
2021/08/01 07:40:19;;;;;;;3.70;3.40;;;20.10;99.90;;;;;;4983533;28;20233;-79
2021/08/01 07:42:46;;;;;;;3.90;3.60;;;20.00;99.90;;;;;;4990764;28;20711;-78
2021/08/01 07:45:22;;;;;;;4.57;4.28;;;19.80;99.90;;;;;;4986097;28;20291;-79
2021/08/01 07:47:50;;;;;;;3.67;3.38;;;20.00;99.90;;;;;;4990947;28;20250;-78
2021/08/01 07:50:17;;;;;;;3.70;3.40;;;20.10;99.90;;;;;;4988897;28;20232;-78
2021/08/01 07:52:45;;;;;;;4.00;3.70;;;20.20;99.90;;;;;;4989760;28;20232;-79
2021/08/01 07:55:15;;;;;;;3.45;3.20;;;20.10;99.90;;;;;;4995974;28;20224;-79
2021/08/01 07:57:43;;;;;;;3.55;3.25;;;20.00;99.90;;;;;;5015337;28;20207;-77
2021/08/01 08:00:14;;;;;;;3.58;3.28;;;19.90;99.90;;;;;;4990959;28;20226;-78
2021/08/01 08:02:42;;;;;;;3.40;3.10;;;19.80;99.90;;;;;;4998022;28;20239;-78
2021/08/01 08:05:10;;;;;;;3.30;3.03;;;19.70;99.90;;;;;;4994578;28;20278;-77
2021/08/01 08:07:38;;;;;;;3.05;2.85;;;19.70;99.90;;;;;;4992067;28;20274;-78
2021/08/01 08:10:07;;;;;;;3.45;3.22;;;19.90;99.90;;;;;;4988007;28;20652;-79
2021/08/01 08:12:38;;;;;;;2.40;2.30;;;20.00;99.90;;;;;;4991724;28;20275;-79
2021/08/01 08:15:06;;;;;;;3.20;2.90;;;20.10;99.90;;;;;;4998983;28;20228;-78
2021/08/01 08:17:34;;;;;;;2.80;2.60;;;20.20;99.90;;;;;;5000898;28;20227;-78
2021/08/01 08:20:02;;;;;;;2.63;2.42;;;20.40;99.90;;;;;;5001759;28;20251;-79
2021/08/01 08:22:29;;;;;;;2.78;2.58;;;20.50;99.90;;;;;;4997711;28;20321;-78
2021/08/01 08:24:56;;;;;;;3.00;2.80;;;20.60;99.90;;;;;;4997678;28;20295;-77
2021/08/01 08:27:25;;;;;;;2.95;2.75;;;20.50;99.90;;;;;;4997715;28;20282;-78
2021/08/01 08:29:52;;;;;;;3.33;3.03;;;20.50;99.90;;;;;;4996379;28;20233;-79
2021/08/01 08:32:19;;;;;;;3.15;2.95;;;20.40;99.90;;;;;;4992254;28;20235;-78
2021/08/01 08:34:46;;;;;;;3.28;3.08;;;20.20;99.90;;;;;;4991914;28;20231;-78
2021/08/01 08:37:13;;;;;;;4.47;3.10;;;20.00;99.90;;;;;;4999790;28;20227;-78
2021/08/01 08:39:40;;;;;;;3.30;3.08;;;19.80;99.90;;;;;;4997850;28;20767;-78
2021/08/01 08:42:08;;;;;;;3.00;2.67;;;19.80;99.90;;;;;;4990480;28;20299;-78
2021/08/01 08:44:37;;;;;;;2.97;2.78;;;19.90;99.90;;;;;;4997760;28;20737;-78
2021/08/01 08:47:05;;;;;;;2.95;2.75;;;20.00;99.90;;;;;;5011200;28;20215;-79
2021/08/01 08:49:35;;;;;;;2.97;2.65;;;20.10;99.90;;;;;;4992740;28;20272;-77
2021/08/01 08:52:06;;;;;;;3.53;2.90;;;20.20;99.90;;;;;;4991915;28;20327;-77
2021/08/01 08:54:39;;;;;;;2.80;2.60;;;20.30;99.90;;;;;;4996356;28;20228;-78
2021/08/01 08:57:18;;;;;;;2.70;2.50;;;20.30;99.90;;;;;;4989288;28;20224;-78
2021/08/01 08:59:47;;;;;;;2.65;2.42;;;20.30;99.90;;;;;;5000551;28;20215;-79
2021/08/01 09:02:14;;;;;;;2.80;2.60;;;20.30;99.90;;;;;;4994277;28;20287;-78
2021/08/01 09:04:43;;;;;;;2.63;2.42;;;20.30;99.90;;;;;;4988589;28;20236;-77
2021/08/01 09:07:10;;;;;;;2.30;2.20;;;20.30;99.90;;;;;;4990684;28;20311;-78
2021/08/01 09:09:37;;;;;;;2.70;2.50;;;20.30;99.90;;;;;;4990701;28;20235;-77
2021/08/01 09:12:04;;;;;;;2.65;2.45;;;20.30;99.90;;;;;;4988982;28;20235;-77
2021/08/01 09:14:31;;;;;;;2.45;2.28;;;20.20;99.90;;;;;;4993665;28;20290;-77
2021/08/01 09:17:01;;;;;;;2.85;2.55;;;20.10;99.90;;;;;;4993779;28;20806;-77
2021/08/01 09:19:32;;;;;;;2.70;2.50;;;20.00;99.90;;;;;;4986506;28;20316;-78
2021/08/01 09:22:18;;;;;;;2.47;2.28;;;19.90;99.90;;;;;;4988261;28;20240;-78
2021/08/01 09:24:49;;;;;;;2.20;2.10;;;19.90;99.90;;;;;;4994797;28;20219;-76
2021/08/01 09:27:29;;;;;;;2.78;2.55;;;20.00;99.90;;;;;;4989847;28;20224;-76
2021/08/01 09:29:57;;;;;;;2.45;2.25;;;20.10;99.90;;;;;;4987048;28;20722;-78
2021/08/01 09:32:26;;;;;;;1.85;1.75;;;20.10;99.90;;;;;;4995178;28;20224;-75
2021/08/01 09:34:53;;;;;;;2.10;2.00;;;20.10;99.90;;;;;;4996447;28;20224;-76
2021/08/01 09:37:34;;;;;;;2.35;2.15;;;20.00;99.90;;;;;;4999226;28;20235;-78
2021/08/01 09:40:10;;;;;;;1.95;1.83;;;19.80;99.90;;;;;;4997295;28;20255;-77
2021/08/01 09:42:42;;;;;;;1.90;1.80;;;19.50;99.90;;;;;;4995955;28;20667;-78
2021/08/01 09:45:17;;;;;;;2.58;2.38;;;19.30;99.90;;;;;;4993228;28;20228;-78
2021/08/01 09:47:48;;;;;;;1.92;1.83;;;19.30;99.90;;;;;;4990740;28;20310;-79
2021/08/01 09:50:16;;;;;;;2.78;1.92;;;19.40;99.90;;;;;;4993968;28;20294;-76
2021/08/01 09:52:44;;;;;;;2.97;2.13;;;19.50;99.90;;;;;;4991745;28;20223;-76
2021/08/01 09:55:18;;;;;;;2.42;2.00;;;19.20;99.90;;;;;;4988706;28;20232;-76
2021/08/01 09:57:57;;;;;;;2.10;1.90;;;19.00;99.90;;;;;;4993443;28;20669;-77
2021/08/01 10:00:25;;;;;;;2.50;2.30;;;19.00;99.90;;;;;;4993528;28;20292;-76
2021/08/01 10:02:54;;;;;;;6.22;2.05;;;19.20;99.90;;;;;;4991509;28;21059;-76
2021/08/01 10:05:22;;;;;;;3.50;2.10;;;19.40;99.90;;;;;;4987979;28;20244;-77
2021/08/01 10:07:51;;;;;;;2.78;2.50;;;19.50;99.90;;;;;;5007654;28;20219;-78
2021/08/01 10:10:24;;;;;;;2.40;2.20;;;19.50;99.90;;;;;;5005261;28;20271;-77
2021/08/01 10:14:48;;;;;;;3.17;1.98;;;19.20;99.90;;;;;;5044816;27;20299;-79
2021/08/01 10:17:15;;;;;;;3.35;1.92;;;19.00;99.90;;;;;;5033214;28;20241;-77
2021/08/01 10:19:42;;;;;;;1.88;1.77;;;18.80;99.90;;;;;;5032192;28;20273;-77
2021/08/01 10:22:10;;;;;;;2.20;1.80;;;18.60;99.90;;;;;;5034669;28;20230;-76
2021/08/01 10:24:41;;;;;;;2.22;2.03;;;18.60;99.90;;;;;;5030909;28;20585;-77
2021/08/01 10:27:09;;;;;;;2.28;1.70;;;18.60;99.90;;;;;;5033532;28;20211;-77
2021/08/01 10:29:47;;;;;;;1.90;1.70;;;18.60;99.90;;;;;;5035620;28;20233;-78
2021/08/01 10:32:18;;;;;;;2.40;1.77;;;18.60;99.90;;;;;;5037745;28;20226;-77
2021/08/01 10:34:48;;;;;;;1.95;1.80;;;18.70;99.90;;;;;;5032737;28;20218;-78
2021/08/01 10:37:22;;;;;;;2.35;1.75;;;18.80;99.90;;;;;;5039547;28;20292;-79
2021/08/01 10:39:49;;;;;;;1.90;1.80;;;18.90;99.90;;;;;;5034142;28;20764;-79
2021/08/01 10:42:20;;;;;;;2.00;1.90;;;19.00;99.90;;;;;;5033370;28;20229;-77
2021/08/01 10:44:48;;;;;;;1.98;1.85;;;19.00;99.90;;;;;;5035590;28;20218;-78
2021/08/01 10:47:18;;;;;;;2.03;1.77;;;18.90;99.90;;;;;;5032118;28;20752;-77
2021/08/01 10:49:48;;;;;;;1.80;1.67;;;18.90;99.90;;;;;;5034754;28;20718;-78
2021/08/01 10:52:18;;;;;;;2.00;1.90;;;18.80;99.90;;;;;;5033269;28;20218;-78
2021/08/01 10:54:55;;;;;;;1.83;1.70;;;18.70;99.90;;;;;;5033690;28;20227;-77
2021/08/01 10:57:23;;;;;;;2.30;2.10;;;18.60;99.90;;;;;;5033805;28;20682;-77
2021/08/01 11:00:03;;;;;;;3.38;2.30;;;18.50;99.90;;;;;;5036238;28;20210;-79
2021/08/01 11:02:33;;;;;;;2.42;2.22;;;18.40;99.90;;;;;;5044773;28;20294;-80
2021/08/01 11:05:39;;;;;;;2.25;2.05;;;18.30;99.90;;;;;;5033803;28;21101;-79
2021/08/01 11:08:07;;;;;;;2.60;2.40;;;18.30;99.90;;;;;;5031027;28;20815;-77
2021/08/01 11:10:34;;;;;;;2.65;2.25;;;18.30;99.90;;;;;;5033509;28;20253;-78
2021/08/01 11:13:01;;;;;;;2.33;2.13;;;18.30;99.90;;;;;;5038423;28;20780;-77
2021/08/01 11:15:46;;;;;;;1.85;1.75;;;18.40;99.90;;;;;;5030847;28;20281;-80
2021/08/01 11:18:14;;;;;;;2.38;2.17;;;18.50;99.90;;;;;;5038686;28;20234;-80
2021/08/01 11:20:52;;;;;;;3.03;2.50;;;18.50;99.90;;;;;;5036753;28;20219;-77
2021/08/01 11:23:19;;;;;;;2.42;2.22;;;18.50;99.90;;;;;;5032236;28;20238;-79
2021/08/01 11:26:10;;;;;;;3.25;2.15;;;18.40;99.90;;;;;;5021836;28;20267;-76
2021/08/01 11:28:37;;;;;;;2.45;1.98;;;18.40;99.90;;;;;;5016447;28;20270;-78
2021/08/01 11:31:08;;;;;;;2.20;2.00;;;18.50;99.90;;;;;;5018257;28;20282;-78
2021/08/01 11:33:38;;;;;;;1.85;1.73;;;18.60;99.90;;;;;;5019386;28;20697;-79
2021/08/01 11:36:24;;;;;;;2.08;1.95;;;18.80;99.90;;;;;;5025226;28;20219;-79
2021/08/01 11:39:07;;;;;;;2.10;2.00;;;18.70;99.90;;;;;;5019904;28;20228;-78
2021/08/01 11:41:40;;;;;;;2.17;2.08;;;18.70;99.90;;;;;;5018800;28;20259;-81
2021/08/01 11:44:14;;;;;;;2.35;2.17;;;18.70;99.90;;;;;;5021553;28;20265;-80
2021/08/01 11:47:02;;;;;;;2.42;2.22;;;18.70;99.90;;;;;;5020429;28;20611;-80
2021/08/01 11:49:33;;;;;;;2.17;2.00;;;18.70;99.90;;;;;;5015748;28;20251;-80
2021/08/01 11:52:02;;;;;;;1.83;1.73;;;18.70;99.90;;;;;;5034490;28;20203;-80
2021/08/01 11:54:31;;;;;;;1.90;1.80;;;18.90;99.90;;;;;;5015573;28;20334;-80
2021/08/01 11:57:04;;;;;;;1.58;1.48;;;18.90;99.90;;;;;;5017223;28;20693;-79
2021/08/01 11:59:32;;;;;;;1.70;1.60;;;19.00;99.90;;;;;;5016308;28;20261;-80
2021/08/01 12:02:00;;;;;;;1.60;1.50;;;19.10;99.90;;;;;;5015728;28;20598;-79
2021/08/01 12:04:29;;;;;;;1.75;1.58;;;19.30;99.90;;;;;;5011178;28;20717;-79
2021/08/01 12:06:58;;;;;;;1.65;1.55;;;19.40;99.90;;;;;;5020628;28;20239;-80
2021/08/01 12:09:27;;;;;;;1.88;1.77;;;19.60;99.90;;;;;;5016250;28;20762;-79
2021/08/01 12:11:56;;;;;;;2.03;1.83;;;19.80;99.90;;;;;;5014089;28;20926;-79
2021/08/01 12:14:25;;;;;;;1.80;1.70;;;19.90;99.90;;;;;;5012089;28;20223;-79
2021/08/01 12:16:57;;;;;;;2.58;2.13;;;20.10;99.90;;;;;;5016457;28;20224;-79
2021/08/01 12:19:26;;;;;;;1.73;1.50;;;20.10;99.90;;;;;;5014779;28;20936;-80
2021/08/01 12:21:57;;;;;;;1.70;1.60;;;20.20;99.90;;;;;;5011595;28;20635;-79
2021/08/01 12:24:31;;;;;;;1.60;1.50;;;20.20;99.90;;;;;;5010481;28;20237;-81
2021/08/01 12:27:00;;;;;;;1.70;1.60;;;20.20;99.90;;;;;;5017003;28;20222;-80
2021/08/01 12:29:32;;;;;;;1.80;1.70;;;20.10;99.90;;;;;;5015013;28;20307;-79
2021/08/01 12:31:59;;;;;;;1.63;1.52;;;20.00;99.90;;;;;;5053725;22;20226;-77
2021/08/01 12:34:27;;;;;;;1.90;1.80;;;20.00;99.90;;;;;;5038612;28;20269;-78
2021/08/01 12:36:55;;;;;;;2.05;1.92;;;19.90;99.90;;;;;;5038754;28;20289;-78
2021/08/01 12:39:22;;;;;;;1.90;1.80;;;20.00;99.90;;;;;;5034984;28;20269;-76
2021/08/01 12:41:51;;;;;;;2.20;2.00;;;20.00;99.90;;;;;;5034370;28;20223;-77
2021/08/01 12:44:20;;;;;;;1.73;1.60;;;20.00;99.90;;;;;;5023934;28;20281;-77
2021/08/01 12:46:48;;;;;;;2.25;2.00;;;20.00;99.90;;;;;;5027562;28;20211;-77
2021/08/01 12:49:15;;;;;;;2.20;2.00;;;20.00;99.90;;;;;;5024757;28;20303;-77
2021/08/01 12:51:46;;;;;;;2.67;2.28;;;19.90;99.90;;;;;;5025418;28;20785;-77
2021/08/01 12:54:14;;;;;;;1.70;1.60;;;20.00;99.90;;;;;;5021016;28;20310;-76
2021/08/01 12:57:05;;;;;;;2.28;1.75;;;20.00;99.90;;;;;;5022739;28;20232;-78
2021/08/01 12:59:32;;;;;;;1.50;1.40;;;20.10;99.90;;;;;;5018900;28;20243;-79
2021/08/01 13:01:59;;;;;;;1.85;1.75;;;20.10;99.90;;;;;;5023989;28;20219;-78
2021/08/01 13:04:26;;;;;;;1.70;1.60;;;20.20;99.90;;;;;;5022812;28;20195;-79
2021/08/01 13:07:01;;;;;;;1.40;1.33;;;20.20;99.90;;;;;;5027598;28;20199;-77